sensor_id;sensor_type;location;lat;lon;timestamp;P1;durP1;ratioP1;P2;durP2;ratioP2
36253;SDS011;22291;52.250;21.228;2022-09-13T00:00:59;13.90;;;11.20;;
36253;SDS011;22291;52.250;21.228;2022-09-13T00:03:27;14.38;;;10.15;;
36253;SDS011;22291;52.250;21.228;2022-09-13T00:05:54;15.43;;;10.40;;
36253;SDS011;22291;52.250;21.228;2022-09-13T00:08:20;13.85;;;10.45;;
36253;SDS011;22291;52.250;21.228;2022-09-13T00:10:47;15.48;;;10.78;;
36253;SDS011;22291;52.250;21.228;2022-09-13T00:13:14;16.50;;;10.82;;
36253;SDS011;22291;52.250;21.228;2022-09-13T00:15:43;15.60;;;9.90;;
36253;SDS011;22291;52.250;21.228;2022-09-13T00:18:15;16.85;;;10.68;;
36253;SDS011;22291;52.250;21.228;2022-09-13T00:20:43;15.10;;;10.97;;
36253;SDS011;22291;52.250;21.228;2022-09-13T00:23:11;14.00;;;9.83;;
36253;SDS011;22291;52.250;21.228;2022-09-13T00:25:37;17.25;;;10.60;;
36253;SDS011;22291;52.250;21.228;2022-09-13T00:28:05;14.95;;;10.48;;
36253;SDS011;22291;52.250;21.228;2022-09-13T00:30:32;12.90;;;10.60;;
36253;SDS011;22291;52.250;21.228;2022-09-13T00:32:59;18.20;;;10.40;;
36253;SDS011;22291;52.250;21.228;2022-09-13T00:35:27;23.75;;;11.05;;
36253;SDS011;22291;52.250;21.228;2022-09-13T00:37:53;14.63;;;10.53;;
36253;SDS011;22291;52.250;21.228;2022-09-13T00:40:19;14.45;;;10.38;;
36253;SDS011;22291;52.250;21.228;2022-09-13T00:42:46;16.40;;;10.25;;
36253;SDS011;22291;52.250;21.228;2022-09-13T00:47:47;13.03;;;9.55;;
36253;SDS011;22291;52.250;21.228;2022-09-13T00:53:00;15.30;;;10.80;;
36253;SDS011;22291;52.250;21.228;2022-09-13T00:55:32;16.70;;;10.78;;
36253;SDS011;22291;52.250;21.228;2022-09-13T00:58:13;14.15;;;10.48;;
36253;SDS011;22291;52.250;21.228;2022-09-13T01:00:47;13.58;;;10.10;;
36253;SDS011;22291;52.250;21.228;2022-09-13T01:03:14;12.65;;;9.83;;
36253;SDS011;22291;52.250;21.228;2022-09-13T01:05:46;14.38;;;9.35;;
36253;SDS011;22291;52.250;21.228;2022-09-13T01:08:21;13.25;;;9.75;;
36253;SDS011;22291;52.250;21.228;2022-09-13T01:10:52;13.03;;;10.05;;
36253;SDS011;22291;52.250;21.228;2022-09-13T01:13:18;14.65;;;10.58;;
36253;SDS011;22291;52.250;21.228;2022-09-13T01:15:48;13.88;;;9.85;;
36253;SDS011;22291;52.250;21.228;2022-09-13T01:18:15;13.65;;;9.40;;
36253;SDS011;22291;52.250;21.228;2022-09-13T01:20:45;13.32;;;9.78;;
36253;SDS011;22291;52.250;21.228;2022-09-13T01:30:11;17.20;;;10.48;;
36253;SDS011;22291;52.250;21.228;2022-09-13T01:44:28;15.85;;;10.43;;
36253;SDS011;22291;52.250;21.228;2022-09-13T01:53:02;14.83;;;10.28;;
36253;SDS011;22291;52.250;21.228;2022-09-13T01:55:56;17.82;;;10.78;;
36253;SDS011;22291;52.250;21.228;2022-09-13T02:04:04;16.05;;;10.70;;
36253;SDS011;22291;52.250;21.228;2022-09-13T02:06:35;15.50;;;10.15;;
36253;SDS011;22291;52.250;21.228;2022-09-13T02:09:10;18.80;;;10.72;;
36253;SDS011;22291;52.250;21.228;2022-09-13T02:11:40;16.17;;;10.93;;
36253;SDS011;22291;52.250;21.228;2022-09-13T02:14:18;17.82;;;11.95;;
36253;SDS011;22291;52.250;21.228;2022-09-13T02:19:38;15.85;;;10.68;;
36253;SDS011;22291;52.250;21.228;2022-09-13T02:22:22;17.15;;;11.10;;
36253;SDS011;22291;52.250;21.228;2022-09-13T02:24:54;24.85;;;13.70;;
36253;SDS011;22291;52.250;21.228;2022-09-13T02:27:25;20.75;;;12.30;;
36253;SDS011;22291;52.250;21.228;2022-09-13T02:29:57;17.17;;;11.50;;
36253;SDS011;22291;52.250;21.228;2022-09-13T02:32:35;18.48;;;10.88;;
36253;SDS011;22291;52.250;21.228;2022-09-13T02:35:07;20.05;;;10.90;;
36253;SDS011;22291;52.250;21.228;2022-09-13T02:37:38;16.27;;;11.35;;
36253;SDS011;22291;52.250;21.228;2022-09-13T02:40:09;17.27;;;12.23;;
36253;SDS011;22291;52.250;21.228;2022-09-13T02:42:40;18.30;;;12.40;;
36253;SDS011;22291;52.250;21.228;2022-09-13T02:45:11;19.05;;;11.78;;
36253;SDS011;22291;52.250;21.228;2022-09-13T03:02:03;19.30;;;12.03;;
36253;SDS011;22291;52.250;21.228;2022-09-13T03:04:27;19.05;;;13.40;;
36253;SDS011;22291;52.250;21.228;2022-09-13T03:06:54;25.68;;;13.22;;
36253;SDS011;22291;52.250;21.228;2022-09-13T03:09:21;16.12;;;11.90;;
36253;SDS011;22291;52.250;21.228;2022-09-13T03:20:11;18.95;;;13.08;;
36253;SDS011;22291;52.250;21.228;2022-09-13T03:23:02;16.82;;;12.15;;
36253;SDS011;22291;52.250;21.228;2022-09-13T03:31:03;20.25;;;13.03;;
36253;SDS011;22291;52.250;21.228;2022-09-13T03:36:54;15.28;;;11.60;;
36253;SDS011;22291;52.250;21.228;2022-09-13T03:39:30;19.67;;;12.63;;
36253;SDS011;22291;52.250;21.228;2022-09-13T03:41:59;18.90;;;12.53;;
36253;SDS011;22291;52.250;21.228;2022-09-13T03:44:30;20.80;;;13.60;;
36253;SDS011;22291;52.250;21.228;2022-09-13T03:46:59;17.77;;;11.88;;
36253;SDS011;22291;52.250;21.228;2022-09-13T03:49:28;17.70;;;12.58;;
36253;SDS011;22291;52.250;21.228;2022-09-13T03:51:56;18.05;;;11.57;;
36253;SDS011;22291;52.250;21.228;2022-09-13T03:54:26;17.35;;;11.57;;
36253;SDS011;22291;52.250;21.228;2022-09-13T03:57:13;15.65;;;11.33;;
36253;SDS011;22291;52.250;21.228;2022-09-13T03:59:55;17.70;;;11.20;;
36253;SDS011;22291;52.250;21.228;2022-09-13T04:02:20;15.15;;;11.18;;
36253;SDS011;22291;52.250;21.228;2022-09-13T04:04:49;15.28;;;10.98;;
36253;SDS011;22291;52.250;21.228;2022-09-13T04:07:17;21.52;;;11.63;;
36253;SDS011;22291;52.250;21.228;2022-09-13T04:09:46;16.27;;;11.50;;
36253;SDS011;22291;52.250;21.228;2022-09-13T04:12:13;15.95;;;11.12;;
36253;SDS011;22291;52.250;21.228;2022-09-13T04:14:41;14.90;;;11.07;;
36253;SDS011;22291;52.250;21.228;2022-09-13T04:17:08;15.15;;;10.80;;
36253;SDS011;22291;52.250;21.228;2022-09-13T04:19:35;17.32;;;11.57;;
36253;SDS011;22291;52.250;21.228;2022-09-13T04:22:02;17.77;;;10.70;;
36253;SDS011;22291;52.250;21.228;2022-09-13T04:24:29;13.95;;;10.30;;
36253;SDS011;22291;52.250;21.228;2022-09-13T04:26:56;16.10;;;10.35;;
36253;SDS011;22291;52.250;21.228;2022-09-13T04:29:24;16.02;;;10.70;;
36253;SDS011;22291;52.250;21.228;2022-09-13T04:31:52;16.85;;;10.75;;
36253;SDS011;22291;52.250;21.228;2022-09-13T04:34:20;19.20;;;11.05;;
36253;SDS011;22291;52.250;21.228;2022-09-13T04:36:48;16.12;;;10.90;;
36253;SDS011;22291;52.250;21.228;2022-09-13T04:39:16;16.80;;;12.10;;
36253;SDS011;22291;52.250;21.228;2022-09-13T04:41:45;19.77;;;12.00;;
36253;SDS011;22291;52.250;21.228;2022-09-13T04:44:13;20.77;;;12.03;;
36253;SDS011;22291;52.250;21.228;2022-09-13T04:46:42;20.77;;;13.35;;
36253;SDS011;22291;52.250;21.228;2022-09-13T04:49:14;19.77;;;11.80;;
36253;SDS011;22291;52.250;21.228;2022-09-13T04:51:42;18.93;;;11.60;;
36253;SDS011;22291;52.250;21.228;2022-09-13T04:54:09;18.45;;;11.57;;
36253;SDS011;22291;52.250;21.228;2022-09-13T04:56:37;20.92;;;11.33;;
36253;SDS011;22291;52.250;21.228;2022-09-13T04:59:03;26.52;;;13.15;;
36253;SDS011;22291;52.250;21.228;2022-09-13T05:01:29;26.33;;;12.37;;
36253;SDS011;22291;52.250;21.228;2022-09-13T05:03:55;19.87;;;11.70;;
36253;SDS011;22291;52.250;21.228;2022-09-13T05:06:21;19.92;;;11.63;;
36253;SDS011;22291;52.250;21.228;2022-09-13T05:08:51;21.35;;;11.57;;
36253;SDS011;22291;52.250;21.228;2022-09-13T05:11:23;20.77;;;12.60;;
36253;SDS011;22291;52.250;21.228;2022-09-13T05:13:53;17.00;;;11.38;;
36253;SDS011;22291;52.250;21.228;2022-09-13T05:18:49;15.50;;;9.85;;
36253;SDS011;22291;52.250;21.228;2022-09-13T05:21:16;15.88;;;10.90;;
36253;SDS011;22291;52.250;21.228;2022-09-13T05:23:43;20.23;;;11.65;;
36253;SDS011;22291;52.250;21.228;2022-09-13T05:26:12;18.63;;;10.90;;
36253;SDS011;22291;52.250;21.228;2022-09-13T05:28:38;18.02;;;10.80;;
36253;SDS011;22291;52.250;21.228;2022-09-13T05:31:09;22.25;;;10.98;;
36253;SDS011;22291;52.250;21.228;2022-09-13T05:33:42;20.65;;;11.20;;
36253;SDS011;22291;52.250;21.228;2022-09-13T05:36:09;14.15;;;10.80;;
36253;SDS011;22291;52.250;21.228;2022-09-13T05:38:36;14.35;;;9.95;;
36253;SDS011;22291;52.250;21.228;2022-09-13T05:41:03;16.82;;;9.93;;
36253;SDS011;22291;52.250;21.228;2022-09-13T05:43:32;16.70;;;10.68;;
36253;SDS011;22291;52.250;21.228;2022-09-13T05:46:12;16.17;;;9.90;;
36253;SDS011;22291;52.250;21.228;2022-09-13T05:48:38;18.77;;;11.38;;
36253;SDS011;22291;52.250;21.228;2022-09-13T05:51:12;21.25;;;10.08;;
36253;SDS011;22291;52.250;21.228;2022-09-13T05:53:50;15.53;;;9.65;;
36253;SDS011;22291;52.250;21.228;2022-09-13T05:56:21;14.83;;;9.88;;
36253;SDS011;22291;52.250;21.228;2022-09-13T05:58:51;13.25;;;9.75;;
36253;SDS011;22291;52.250;21.228;2022-09-13T06:01:20;14.38;;;10.05;;
36253;SDS011;22291;52.250;21.228;2022-09-13T06:03:51;17.35;;;11.10;;
36253;SDS011;22291;52.250;21.228;2022-09-13T06:08:46;15.43;;;10.60;;
36253;SDS011;22291;52.250;21.228;2022-09-13T06:11:19;26.97;;;12.43;;
36253;SDS011;22291;52.250;21.228;2022-09-13T06:13:46;17.62;;;12.05;;
36253;SDS011;22291;52.250;21.228;2022-09-13T06:16:12;21.55;;;12.68;;
36253;SDS011;22291;52.250;21.228;2022-09-13T06:18:41;22.27;;;12.23;;
36253;SDS011;22291;52.250;21.228;2022-09-13T06:21:09;21.93;;;12.80;;
36253;SDS011;22291;52.250;21.228;2022-09-13T06:23:47;21.15;;;12.80;;
36253;SDS011;22291;52.250;21.228;2022-09-13T06:26:13;25.02;;;13.18;;
36253;SDS011;22291;52.250;21.228;2022-09-13T06:31:14;28.55;;;12.73;;
36253;SDS011;22291;52.250;21.228;2022-09-13T06:33:42;16.75;;;12.20;;
36253;SDS011;22291;52.250;21.228;2022-09-13T06:36:10;24.43;;;13.90;;
36253;SDS011;22291;52.250;21.228;2022-09-13T06:38:43;22.75;;;14.35;;
36253;SDS011;22291;52.250;21.228;2022-09-13T06:41:11;20.75;;;14.18;;
36253;SDS011;22291;52.250;21.228;2022-09-13T06:43:42;24.98;;;14.03;;
36253;SDS011;22291;52.250;21.228;2022-09-13T06:46:13;19.65;;;13.93;;
36253;SDS011;22291;52.250;21.228;2022-09-13T06:48:43;32.80;;;16.35;;
36253;SDS011;22291;52.250;21.228;2022-09-13T06:51:11;31.52;;;15.32;;
36253;SDS011;22291;52.250;21.228;2022-09-13T06:53:41;26.97;;;15.90;;
36253;SDS011;22291;52.250;21.228;2022-09-13T06:56:10;27.15;;;15.23;;
36253;SDS011;22291;52.250;21.228;2022-09-13T06:58:40;28.05;;;16.07;;
36253;SDS011;22291;52.250;21.228;2022-09-13T07:01:10;23.02;;;15.72;;
36253;SDS011;22291;52.250;21.228;2022-09-13T07:03:41;23.75;;;15.50;;
36253;SDS011;22291;52.250;21.228;2022-09-13T07:06:12;24.12;;;16.40;;
36253;SDS011;22291;52.250;21.228;2022-09-13T07:08:41;27.05;;;16.27;;
36253;SDS011;22291;52.250;21.228;2022-09-13T07:11:10;24.20;;;16.20;;
36253;SDS011;22291;52.250;21.228;2022-09-13T07:13:38;22.50;;;15.85;;
36253;SDS011;22291;52.250;21.228;2022-09-13T07:16:07;23.57;;;15.90;;
36253;SDS011;22291;52.250;21.228;2022-09-13T07:18:55;21.60;;;14.80;;
36253;SDS011;22291;52.250;21.228;2022-09-13T07:21:24;21.50;;;15.85;;
36253;SDS011;22291;52.250;21.228;2022-09-13T07:23:52;22.35;;;15.30;;
36253;SDS011;22291;52.250;21.228;2022-09-13T07:26:20;23.83;;;16.00;;
36253;SDS011;22291;52.250;21.228;2022-09-13T07:28:48;27.42;;;16.62;;
36253;SDS011;22291;52.250;21.228;2022-09-13T07:31:18;25.43;;;15.95;;
36253;SDS011;22291;52.250;21.228;2022-09-13T07:33:53;24.02;;;16.42;;
36253;SDS011;22291;52.250;21.228;2022-09-13T07:36:22;21.93;;;15.32;;
36253;SDS011;22291;52.250;21.228;2022-09-13T07:38:50;22.98;;;15.15;;
36253;SDS011;22291;52.250;21.228;2022-09-13T07:41:18;23.18;;;15.60;;
36253;SDS011;22291;52.250;21.228;2022-09-13T07:43:47;19.45;;;13.75;;
36253;SDS011;22291;52.250;21.228;2022-09-13T07:46:15;19.20;;;14.85;;
36253;SDS011;22291;52.250;21.228;2022-09-13T07:48:46;20.05;;;14.85;;
36253;SDS011;22291;52.250;21.228;2022-09-13T07:51:15;14.60;;;12.90;;
36253;SDS011;22291;52.250;21.228;2022-09-13T07:53:47;14.58;;;12.15;;
36253;SDS011;22291;52.250;21.228;2022-09-13T07:56:16;12.35;;;10.40;;
36253;SDS011;22291;52.250;21.228;2022-09-13T07:58:46;13.70;;;11.00;;
36253;SDS011;22291;52.250;21.228;2022-09-13T08:01:18;11.00;;;9.45;;
36253;SDS011;22291;52.250;21.228;2022-09-13T08:03:51;12.80;;;9.40;;
36253;SDS011;22291;52.250;21.228;2022-09-13T08:06:20;10.23;;;7.90;;
36253;SDS011;22291;52.250;21.228;2022-09-13T08:08:48;11.78;;;8.23;;
36253;SDS011;22291;52.250;21.228;2022-09-13T08:11:16;10.65;;;7.58;;
36253;SDS011;22291;52.250;21.228;2022-09-13T08:13:45;9.03;;;7.25;;
36253;SDS011;22291;52.250;21.228;2022-09-13T08:16:13;9.28;;;7.25;;
36253;SDS011;22291;52.250;21.228;2022-09-13T08:18:43;8.90;;;7.05;;
36253;SDS011;22291;52.250;21.228;2022-09-13T08:21:13;9.35;;;7.35;;
36253;SDS011;22291;52.250;21.228;2022-09-13T08:23:40;10.23;;;7.50;;
36253;SDS011;22291;52.250;21.228;2022-09-13T08:26:07;12.65;;;7.58;;
36253;SDS011;22291;52.250;21.228;2022-09-13T08:28:35;11.38;;;8.78;;
36253;SDS011;22291;52.250;21.228;2022-09-13T08:31:11;11.15;;;8.18;;
36253;SDS011;22291;52.250;21.228;2022-09-13T08:33:45;9.48;;;7.05;;
36253;SDS011;22291;52.250;21.228;2022-09-13T08:36:15;12.78;;;8.13;;
36253;SDS011;22291;52.250;21.228;2022-09-13T08:38:46;11.83;;;8.43;;
36253;SDS011;22291;52.250;21.228;2022-09-13T08:44:16;10.43;;;7.15;;
36253;SDS011;22291;52.250;21.228;2022-09-13T08:46:46;6.92;;;5.45;;
36253;SDS011;22291;52.250;21.228;2022-09-13T08:51:55;8.80;;;5.00;;
36253;SDS011;22291;52.250;21.228;2022-09-13T08:54:32;10.18;;;7.12;;
36253;SDS011;22291;52.250;21.228;2022-09-13T08:57:07;8.50;;;6.87;;
36253;SDS011;22291;52.250;21.228;2022-09-13T09:05:49;6.67;;;3.95;;
36253;SDS011;22291;52.250;21.228;2022-09-13T09:08:28;6.42;;;4.40;;
36253;SDS011;22291;52.250;21.228;2022-09-13T09:14:25;6.12;;;4.33;;
36253;SDS011;22291;52.250;21.228;2022-09-13T09:17:09;3.95;;;3.62;;
36253;SDS011;22291;52.250;21.228;2022-09-13T09:19:51;3.98;;;3.58;;
36253;SDS011;22291;52.250;21.228;2022-09-13T09:22:22;4.35;;;2.90;;
36253;SDS011;22291;52.250;21.228;2022-09-13T09:24:52;3.72;;;2.85;;
36253;SDS011;22291;52.250;21.228;2022-09-13T09:27:20;2.45;;;2.25;;
36253;SDS011;22291;52.250;21.228;2022-09-13T09:29:48;4.67;;;2.65;;
36253;SDS011;22291;52.250;21.228;2022-09-13T09:41:06;3.92;;;3.27;;
36253;SDS011;22291;52.250;21.228;2022-09-13T09:46:44;5.45;;;3.87;;
36253;SDS011;22291;52.250;21.228;2022-09-13T09:49:44;5.72;;;4.75;;
36253;SDS011;22291;52.250;21.228;2022-09-13T09:52:33;5.10;;;3.67;;
36253;SDS011;22291;52.250;21.228;2022-09-13T09:58:11;8.08;;;4.40;;
36253;SDS011;22291;52.250;21.228;2022-09-13T10:00:57;5.45;;;4.37;;
36253;SDS011;22291;52.250;21.228;2022-09-13T10:03:26;5.17;;;4.22;;
36253;SDS011;22291;52.250;21.228;2022-09-13T10:08:39;6.97;;;5.37;;
36253;SDS011;22291;52.250;21.228;2022-09-13T10:13:34;7.47;;;5.20;;
36253;SDS011;22291;52.250;21.228;2022-09-13T10:16:13;5.55;;;4.47;;
36253;SDS011;22291;52.250;21.228;2022-09-13T10:19:06;6.87;;;4.42;;
36253;SDS011;22291;52.250;21.228;2022-09-13T10:21:44;8.53;;;4.60;;
36253;SDS011;22291;52.250;21.228;2022-09-13T10:24:15;7.25;;;4.70;;
36253;SDS011;22291;52.250;21.228;2022-09-13T10:26:44;9.70;;;4.78;;
36253;SDS011;22291;52.250;21.228;2022-09-13T10:29:16;6.25;;;4.47;;
36253;SDS011;22291;52.250;21.228;2022-09-13T10:31:41;5.72;;;4.42;;
36253;SDS011;22291;52.250;21.228;2022-09-13T10:36:57;5.10;;;4.60;;
36253;SDS011;22291;52.250;21.228;2022-09-13T10:39:54;6.62;;;4.75;;
36253;SDS011;22291;52.250;21.228;2022-09-13T10:42:27;5.12;;;4.40;;
36253;SDS011;22291;52.250;21.228;2022-09-13T10:47:31;7.08;;;4.62;;
36253;SDS011;22291;52.250;21.228;2022-09-13T10:50:21;8.38;;;4.80;;
36253;SDS011;22291;52.250;21.228;2022-09-13T10:52:51;6.53;;;4.65;;
36253;SDS011;22291;52.250;21.228;2022-09-13T10:55:33;5.90;;;4.53;;
36253;SDS011;22291;52.250;21.228;2022-09-13T11:00:40;8.63;;;4.95;;
36253;SDS011;22291;52.250;21.228;2022-09-13T11:11:46;6.03;;;4.50;;
36253;SDS011;22291;52.250;21.228;2022-09-13T11:17:43;8.10;;;4.83;;
36253;SDS011;22291;52.250;21.228;2022-09-13T11:20:50;6.95;;;4.90;;
36253;SDS011;22291;52.250;21.228;2022-09-13T11:30:11;6.55;;;4.70;;
36253;SDS011;22291;52.250;21.228;2022-09-13T11:55:16;5.85;;;3.60;;
36253;SDS011;22291;52.250;21.228;2022-09-13T11:58:08;8.10;;;3.35;;
36253;SDS011;22291;52.250;21.228;2022-09-13T12:00:50;8.08;;;3.85;;
36253;SDS011;22291;52.250;21.228;2022-09-13T12:03:29;7.12;;;3.62;;
36253;SDS011;22291;52.250;21.228;2022-09-13T12:08:54;5.03;;;3.22;;
36253;SDS011;22291;52.250;21.228;2022-09-13T12:11:44;4.37;;;2.77;;
36253;SDS011;22291;52.250;21.228;2022-09-13T12:14:19;4.35;;;3.22;;
36253;SDS011;22291;52.250;21.228;2022-09-13T12:16:49;4.08;;;3.05;;
36253;SDS011;22291;52.250;21.228;2022-09-13T12:21:51;5.00;;;3.25;;
36253;SDS011;22291;52.250;21.228;2022-09-13T12:27:03;3.35;;;2.75;;
36253;SDS011;22291;52.250;21.228;2022-09-13T12:29:49;3.85;;;3.12;;
36253;SDS011;22291;52.250;21.228;2022-09-13T12:32:43;4.28;;;2.75;;
36253;SDS011;22291;52.250;21.228;2022-09-13T12:35:16;3.55;;;2.52;;
36253;SDS011;22291;52.250;21.228;2022-09-13T12:46:31;3.52;;;2.95;;
36253;SDS011;22291;52.250;21.228;2022-09-13T12:55:10;3.98;;;2.47;;
36253;SDS011;22291;52.250;21.228;2022-09-13T12:57:50;2.58;;;2.25;;
36253;SDS011;22291;52.250;21.228;2022-09-13T13:00:21;5.05;;;2.37;;
36253;SDS011;22291;52.250;21.228;2022-09-13T13:08:21;3.77;;;2.70;;
36253;SDS011;22291;52.250;21.228;2022-09-13T13:11:02;6.42;;;2.65;;
36253;SDS011;22291;52.250;21.228;2022-09-13T13:18:59;4.78;;;2.75;;
36253;SDS011;22291;52.250;21.228;2022-09-13T13:21:32;3.95;;;2.72;;
36253;SDS011;22291;52.250;21.228;2022-09-13T13:24:47;3.58;;;2.67;;
36253;SDS011;22291;52.250;21.228;2022-09-13T13:29:21;2.72;;;2.52;;
36253;SDS011;22291;52.250;21.228;2022-09-13T13:39:47;4.70;;;3.30;;
36253;SDS011;22291;52.250;21.228;2022-09-13T13:42:34;3.10;;;2.77;;
36253;SDS011;22291;52.250;21.228;2022-09-13T13:45:25;5.03;;;3.40;;
36253;SDS011;22291;52.250;21.228;2022-09-13T13:47:52;3.37;;;2.83;;
36253;SDS011;22291;52.250;21.228;2022-09-13T13:50:35;4.15;;;3.08;;
36253;SDS011;22291;52.250;21.228;2022-09-13T13:53:41;4.25;;;3.02;;
36253;SDS011;22291;52.250;21.228;2022-09-13T13:56:19;3.40;;;2.85;;
36253;SDS011;22291;52.250;21.228;2022-09-13T14:01:47;3.55;;;2.77;;
36253;SDS011;22291;52.250;21.228;2022-09-13T14:04:29;5.80;;;2.85;;
36253;SDS011;22291;52.250;21.228;2022-09-13T14:07:09;3.95;;;2.98;;
36253;SDS011;22291;52.250;21.228;2022-09-13T14:10:06;5.62;;;3.10;;
36253;SDS011;22291;52.250;21.228;2022-09-13T14:15:37;6.00;;;3.17;;
36253;SDS011;22291;52.250;21.228;2022-09-13T14:21:25;6.25;;;3.37;;
36253;SDS011;22291;52.250;21.228;2022-09-13T14:26:48;7.25;;;3.87;;
36253;SDS011;22291;52.250;21.228;2022-09-13T14:29:19;5.55;;;4.47;;
36253;SDS011;22291;52.250;21.228;2022-09-13T14:31:48;5.67;;;4.23;;
36253;SDS011;22291;52.250;21.228;2022-09-13T14:34:21;7.42;;;4.70;;
36253;SDS011;22291;52.250;21.228;2022-09-13T14:36:57;5.03;;;3.98;;
36253;SDS011;22291;52.250;21.228;2022-09-13T14:39:31;8.48;;;3.85;;
36253;SDS011;22291;52.250;21.228;2022-09-13T14:42:14;5.70;;;3.85;;
36253;SDS011;22291;52.250;21.228;2022-09-13T14:44:46;7.12;;;4.00;;
36253;SDS011;22291;52.250;21.228;2022-09-13T14:47:12;5.15;;;3.92;;
36253;SDS011;22291;52.250;21.228;2022-09-13T14:50:04;5.33;;;3.85;;
36253;SDS011;22291;52.250;21.228;2022-09-13T14:52:45;4.75;;;4.03;;
36253;SDS011;22291;52.250;21.228;2022-09-13T14:55:12;5.10;;;3.67;;
36253;SDS011;22291;52.250;21.228;2022-09-13T14:57:45;7.67;;;4.03;;
36253;SDS011;22291;52.250;21.228;2022-09-13T15:00:18;7.25;;;3.77;;
36253;SDS011;22291;52.250;21.228;2022-09-13T15:02:49;4.83;;;3.58;;
36253;SDS011;22291;52.250;21.228;2022-09-13T15:05:26;4.75;;;4.03;;
36253;SDS011;22291;52.250;21.228;2022-09-13T15:07:56;5.62;;;3.60;;
36253;SDS011;22291;52.250;21.228;2022-09-13T15:10:24;7.55;;;4.28;;
36253;SDS011;22291;52.250;21.228;2022-09-13T15:13:01;8.93;;;4.12;;
36253;SDS011;22291;52.250;21.228;2022-09-13T15:15:33;5.67;;;4.50;;
36253;SDS011;22291;52.250;21.228;2022-09-13T15:20:53;5.37;;;4.37;;
36253;SDS011;22291;52.250;21.228;2022-09-13T15:23:28;5.62;;;4.37;;
36253;SDS011;22291;52.250;21.228;2022-09-13T15:28:53;5.92;;;4.75;;
36253;SDS011;22291;52.250;21.228;2022-09-13T15:31:27;7.78;;;4.10;;
36253;SDS011;22291;52.250;21.228;2022-09-13T15:34:09;9.68;;;4.42;;
36253;SDS011;22291;52.250;21.228;2022-09-13T15:36:46;5.08;;;4.45;;
36253;SDS011;22291;52.250;21.228;2022-09-13T15:39:18;6.87;;;4.40;;
36253;SDS011;22291;52.250;21.228;2022-09-13T15:41:53;8.70;;;4.70;;
36253;SDS011;22291;52.250;21.228;2022-09-13T15:44:25;7.62;;;5.00;;
36253;SDS011;22291;52.250;21.228;2022-09-13T15:47:00;7.35;;;4.62;;
36253;SDS011;22291;52.250;21.228;2022-09-13T15:49:30;6.10;;;4.70;;
36253;SDS011;22291;52.250;21.228;2022-09-13T15:52:00;10.88;;;4.70;;
36253;SDS011;22291;52.250;21.228;2022-09-13T15:54:36;6.03;;;4.87;;
36253;SDS011;22291;52.250;21.228;2022-09-13T15:57:12;7.45;;;5.58;;
36253;SDS011;22291;52.250;21.228;2022-09-13T15:59:44;6.53;;;5.10;;
36253;SDS011;22291;52.250;21.228;2022-09-13T16:02:20;5.87;;;4.90;;
36253;SDS011;22291;52.250;21.228;2022-09-13T16:04:53;9.75;;;5.10;;
36253;SDS011;22291;52.250;21.228;2022-09-13T16:07:21;7.03;;;5.35;;
36253;SDS011;22291;52.250;21.228;2022-09-13T16:09:49;6.53;;;5.55;;
36253;SDS011;22291;52.250;21.228;2022-09-13T16:12:16;6.75;;;5.42;;
36253;SDS011;22291;52.250;21.228;2022-09-13T16:14:46;8.88;;;5.72;;
36253;SDS011;22291;52.250;21.228;2022-09-13T16:17:25;8.70;;;5.95;;
36253;SDS011;22291;52.250;21.228;2022-09-13T16:19:53;9.05;;;5.80;;
36253;SDS011;22291;52.250;21.228;2022-09-13T16:22:20;8.05;;;6.05;;
36253;SDS011;22291;52.250;21.228;2022-09-13T16:24:47;11.12;;;6.50;;
36253;SDS011;22291;52.250;21.228;2022-09-13T16:27:14;9.30;;;6.92;;
36253;SDS011;22291;52.250;21.228;2022-09-13T16:29:43;6.87;;;6.12;;
36253;SDS011;22291;52.250;21.228;2022-09-13T16:32:10;8.05;;;6.35;;
36253;SDS011;22291;52.250;21.228;2022-09-13T16:34:36;8.65;;;6.55;;
36253;SDS011;22291;52.250;21.228;2022-09-13T16:37:04;7.90;;;7.05;;
36253;SDS011;22291;52.250;21.228;2022-09-13T16:39:30;8.05;;;6.25;;
36253;SDS011;22291;52.250;21.228;2022-09-13T16:41:57;6.97;;;6.15;;
36253;SDS011;22291;52.250;21.228;2022-09-13T16:44:23;9.18;;;6.90;;
36253;SDS011;22291;52.250;21.228;2022-09-13T16:46:50;6.78;;;6.10;;
36253;SDS011;22291;52.250;21.228;2022-09-13T16:49:16;11.93;;;7.55;;
36253;SDS011;22291;52.250;21.228;2022-09-13T16:51:42;8.78;;;7.55;;
36253;SDS011;22291;52.250;21.228;2022-09-13T16:54:08;8.65;;;6.70;;
36253;SDS011;22291;52.250;21.228;2022-09-13T16:56:34;9.63;;;7.30;;
36253;SDS011;22291;52.250;21.228;2022-09-13T16:59:00;8.68;;;7.20;;
36253;SDS011;22291;52.250;21.228;2022-09-13T17:01:27;9.80;;;6.47;;
36253;SDS011;22291;52.250;21.228;2022-09-13T17:03:54;9.13;;;6.90;;
36253;SDS011;22291;52.250;21.228;2022-09-13T17:06:22;10.53;;;7.30;;
36253;SDS011;22291;52.250;21.228;2022-09-13T17:08:55;8.93;;;6.00;;
36253;SDS011;22291;52.250;21.228;2022-09-13T17:11:29;8.85;;;6.37;;
36253;SDS011;22291;52.250;21.228;2022-09-13T17:14:03;8.23;;;6.87;;
36253;SDS011;22291;52.250;21.228;2022-09-13T17:16:33;7.70;;;7.00;;
36253;SDS011;22291;52.250;21.228;2022-09-13T17:19:04;8.28;;;6.47;;
36253;SDS011;22291;52.250;21.228;2022-09-13T17:21:34;8.13;;;7.33;;
36253;SDS011;22291;52.250;21.228;2022-09-13T17:24:01;11.90;;;7.25;;
36253;SDS011;22291;52.250;21.228;2022-09-13T17:26:28;13.08;;;7.25;;
36253;SDS011;22291;52.250;21.228;2022-09-13T17:28:54;8.08;;;6.53;;
36253;SDS011;22291;52.250;21.228;2022-09-13T17:31:21;8.25;;;7.15;;
36253;SDS011;22291;52.250;21.228;2022-09-13T17:33:47;7.42;;;6.70;;
36253;SDS011;22291;52.250;21.228;2022-09-13T17:36:15;9.65;;;7.22;;
36253;SDS011;22291;52.250;21.228;2022-09-13T17:38:41;10.03;;;7.62;;
36253;SDS011;22291;52.250;21.228;2022-09-13T17:41:09;11.73;;;8.30;;
36253;SDS011;22291;52.250;21.228;2022-09-13T17:43:39;11.28;;;7.50;;
36253;SDS011;22291;52.250;21.228;2022-09-13T17:46:09;9.80;;;8.18;;
36253;SDS011;22291;52.250;21.228;2022-09-13T17:48:38;12.53;;;9.33;;
36253;SDS011;22291;52.250;21.228;2022-09-13T17:51:09;9.18;;;8.10;;
36253;SDS011;22291;52.250;21.228;2022-09-13T17:53:42;8.35;;;7.22;;
36253;SDS011;22291;52.250;21.228;2022-09-13T17:56:08;14.38;;;8.33;;
36253;SDS011;22291;52.250;21.228;2022-09-13T17:58:34;11.10;;;7.90;;
36253;SDS011;22291;52.250;21.228;2022-09-13T18:01:03;11.60;;;7.33;;
36253;SDS011;22291;52.250;21.228;2022-09-13T18:03:32;9.88;;;8.85;;
36253;SDS011;22291;52.250;21.228;2022-09-13T18:05:59;9.98;;;7.22;;
36253;SDS011;22291;52.250;21.228;2022-09-13T18:08:27;12.33;;;6.95;;
36253;SDS011;22291;52.250;21.228;2022-09-13T18:11:10;7.40;;;6.58;;
36253;SDS011;22291;52.250;21.228;2022-09-13T18:13:39;9.95;;;7.00;;
36253;SDS011;22291;52.250;21.228;2022-09-13T18:16:08;26.40;;;18.70;;
36253;SDS011;22291;52.250;21.228;2022-09-13T18:18:39;17.57;;;12.82;;
36253;SDS011;22291;52.250;21.228;2022-09-13T18:21:06;11.55;;;8.05;;
36253;SDS011;22291;52.250;21.228;2022-09-13T18:23:33;15.78;;;10.80;;
36253;SDS011;22291;52.250;21.228;2022-09-13T18:28:40;11.60;;;9.10;;
36253;SDS011;22291;52.250;21.228;2022-09-13T18:31:14;11.60;;;8.50;;
36253;SDS011;22291;52.250;21.228;2022-09-13T18:33:42;11.12;;;8.28;;